KLAW/LAW METAR and TAF weather

Enter ICAO airport designator
Station Type Date Time Source
KLAW METAR 2019/04/25 09:56 UTC NOAA

KLAW 250956Z AUTO 00000KT 1 1/2SM BR CLR 13/12 A2980 RMK AO2 T01280122


Station Type Date Time Source
KLAW Decoded METAR 2019/04/25 09:56 UTC NOAA

LAWTON - FORT SILL REGIONAL, OK, United States (KLAW) 34-34N 98-25W 337M
Apr 25, 2019 - 05:56 AM EDT / 2019.04.25 0956 UTC
Wind: Calm:0
Visibility: 1 1/2 mile(s):0
Sky conditions: clear
Weather: mist
Temperature: 55.0 F (12.8 C)
Dew Point: 54.0 F (12.2 C)
Relative Humidity: 96%
Pressure (altimeter): 29.8 in. Hg (1009 hPa)
ob: KLAW 250956Z AUTO 00000KT 1 1/2SM BR CLR 13/12 A2980 RMK AO2 T01280122
cycle: 10

Station Type Date Time Source
KLAW TAF 2019/04/25 06:36 UTC NOAA

TAF KLAW 250533Z 2506/2606 VRB03KT 4SM BR BKN250
TEMPO 2510/2513 1/2SM FG
FM251400 32005KT P6SM SCT250
FM251900 35017G25KT P6SM SCT250
FM260100 36008KT P6SM SKC

Example: see airport list